Time;durP1;ratioP1;P1;durP2;ratioP2;P2;SDS_P1;SDS_P2;PMS_P1;PMS_P2;Temp;Humidity;BMP_temperature;BMP_pressure;BME280_temperature;BME280_humidity;BME280_pressure;Samples;Min_cycle;Max_cycle;Signal;HPM_P1;HPM_P2
2022/06/10 00:00:42;;;;;;;24.50;14.75;;;12.90;99.90;;;;;;5039380;28;20903;-72
2022/06/10 00:03:10;;;;;;;24.80;14.48;;;12.90;99.90;;;;;;5041637;28;20502;-72
2022/06/10 00:05:39;;;;;;;24.50;15.15;;;12.90;99.90;;;;;;5048109;28;20416;-72
2022/06/10 00:08:07;;;;;;;20.80;14.23;;;12.90;99.90;;;;;;5053654;28;20389;-72
2022/06/10 00:10:33;;;;;;;22.27;14.10;;;12.90;99.90;;;;;;5048361;28;20537;-71
2022/06/10 00:12:59;;;;;;;17.95;13.70;;;12.90;99.90;;;;;;5035669;28;20501;-72
2022/06/10 00:15:25;;;;;;;22.05;13.70;;;12.90;99.90;;;;;;5044454;28;20413;-73
2022/06/10 00:17:51;;;;;;;20.10;14.23;;;12.90;99.90;;;;;;5054883;28;20686;-73
2022/06/10 00:20:20;;;;;;;20.80;13.53;;;12.90;99.90;;;;;;5055032;28;20393;-73
2022/06/10 00:22:46;;;;;;;23.52;14.05;;;12.90;99.90;;;;;;5053518;28;20390;-73
2022/06/10 00:25:12;;;;;;;21.77;14.75;;;12.80;99.90;;;;;;5044957;28;20513;-72
2022/06/10 00:27:38;;;;;;;21.20;14.88;;;12.80;99.90;;;;;;5039127;28;20502;-73
2022/06/10 00:30:06;;;;;;;22.50;14.93;;;12.80;99.90;;;;;;5035759;28;20413;-74
2022/06/10 00:32:31;;;;;;;22.95;14.73;;;12.90;99.90;;;;;;5046101;28;20407;-72
2022/06/10 00:34:57;;;;;;;19.40;14.80;;;12.90;99.90;;;;;;5054574;28;20817;-73
2022/06/10 00:37:22;;;;;;;24.97;14.53;;;12.90;99.90;;;;;;5044230;28;20492;-73
2022/06/10 00:39:48;;;;;;;21.27;14.20;;;12.90;99.90;;;;;;5049788;28;20431;-72
2022/06/10 00:42:14;;;;;;;24.23;14.95;;;12.90;99.90;;;;;;5053085;28;20867;-72
2022/06/10 00:44:46;;;;;;;21.23;14.32;;;12.90;99.90;;;;;;5053348;28;20390;-72
2022/06/10 00:47:37;;;;;;;20.57;15.37;;;12.80;99.90;;;;;;5053162;28;20588;-73
2022/06/10 00:50:28;;;;;;;28.10;14.90;;;12.80;99.90;;;;;;5041628;28;20414;-71
2022/06/10 00:53:04;;;;;;;29.60;15.52;;;12.90;99.90;;;;;;5036073;28;20383;-72
2022/06/10 00:55:30;;;;;;;23.20;15.70;;;13.00;99.90;;;;;;5033145;28;20791;-72
2022/06/10 00:58:21;;;;;;;22.67;16.30;;;12.90;99.90;;;;;;5032903;28;20399;-73
2022/06/10 01:00:47;;;;;;;24.95;16.40;;;12.90;99.90;;;;;;5037335;28;20410;-73
2022/06/10 01:03:12;;;;;;;27.08;17.23;;;12.80;99.90;;;;;;5049602;28;20394;-72
2022/06/10 01:05:38;;;;;;;27.87;17.40;;;12.80;99.90;;;;;;5034511;28;20770;-73
2022/06/10 01:08:19;;;;;;;26.87;16.73;;;12.80;99.90;;;;;;5042727;28;20450;-73
2022/06/10 01:11:06;;;;;;;26.67;17.58;;;12.80;99.90;;;;;;5039335;28;20412;-72
2022/06/10 01:13:55;;;;;;;24.73;17.65;;;12.80;99.90;;;;;;5052678;28;20758;-72
2022/06/10 01:16:47;;;;;;;28.42;17.63;;;12.80;99.90;;;;;;5047457;28;20415;-73
2022/06/10 01:19:35;;;;;;;29.50;18.55;;;12.70;99.90;;;;;;5040983;28;20820;-73
2022/06/10 01:22:32;;;;;;;25.23;18.20;;;12.70;99.90;;;;;;4991244;28;20488;-73
2022/06/10 01:25:38;;;;;;;29.92;18.00;;;12.70;99.90;;;;;;5040801;28;20416;-73
2022/06/10 01:28:14;;;;;;;30.88;18.48;;;12.70;99.90;;;;;;5038823;28;20716;-75
2022/06/10 01:30:46;;;;;;;26.33;18.55;;;12.70;99.90;;;;;;5030135;28;20460;-73
2022/06/10 01:33:20;;;;;;;27.38;17.45;;;12.70;99.90;;;;;;5031202;28;20375;-73
2022/06/10 01:36:14;;;;;;;24.30;18.80;;;12.70;99.90;;;;;;5035867;28;20410;-73
2022/06/10 01:38:53;;;;;;;28.65;18.90;;;12.60;99.90;;;;;;5040934;28;20428;-71
2022/06/10 01:41:38;;;;;;;26.73;18.77;;;12.60;99.90;;;;;;5054609;28;20443;-71
2022/06/10 01:44:20;;;;;;;29.80;19.20;;;12.60;99.90;;;;;;5049349;28;20797;-73
2022/06/10 01:47:00;;;;;;;28.70;18.80;;;12.60;99.90;;;;;;5046452;28;20405;-73
2022/06/10 01:49:48;;;;;;;26.10;17.95;;;12.60;99.90;;;;;;5045234;28;20381;-71
2022/06/10 01:52:24;;;;;;;31.83;19.65;;;12.60;99.90;;;;;;5050334;28;20393;-73
2022/06/10 01:55:21;;;;;;;26.80;19.02;;;12.60;99.90;;;;;;5042352;28;20408;-74
2022/06/10 01:58:13;;;;;;;28.60;19.90;;;12.60;99.90;;;;;;5047306;28;20465;-73
2022/06/10 02:00:43;;;;;;;26.20;19.58;;;12.50;99.90;;;;;;5051724;28;20528;-73
2022/06/10 02:03:15;;;;;;;30.83;20.10;;;12.50;99.90;;;;;;5048347;28;20421;-73
2022/06/10 02:05:52;;;;;;;31.15;20.17;;;12.50;99.90;;;;;;5040022;28;20476;-73
2022/06/10 02:08:22;;;;;;;30.45;19.27;;;12.50;99.90;;;;;;5031627;28;20410;-73
2022/06/10 02:11:01;;;;;;;26.60;18.63;;;12.50;99.90;;;;;;5038663;28;20454;-72
2022/06/10 02:13:31;;;;;;;29.80;19.33;;;12.50;99.90;;;;;;5045899;28;20501;-72
2022/06/10 02:16:00;;;;;;;30.60;19.55;;;12.40;99.90;;;;;;5039682;28;20379;-72
2022/06/10 02:18:37;;;;;;;30.05;19.23;;;12.40;99.90;;;;;;5030422;28;20470;-73
2022/06/10 02:21:12;;;;;;;29.95;19.30;;;12.40;99.90;;;;;;5040450;28;20407;-73
2022/06/10 02:23:45;;;;;;;30.85;19.45;;;12.40;99.90;;;;;;5038086;28;20494;-72
2022/06/10 02:26:12;;;;;;;28.42;19.90;;;12.40;99.90;;;;;;5039328;28;20784;-73
2022/06/10 02:28:41;;;;;;;32.67;20.75;;;12.30;99.90;;;;;;5031642;28;20920;-73
2022/06/10 02:31:17;;;;;;;30.27;20.27;;;12.30;99.90;;;;;;5031053;28;21049;-73
2022/06/10 02:33:44;;;;;;;30.85;19.90;;;12.30;99.90;;;;;;5038057;28;20410;-73
2022/06/10 02:36:21;;;;;;;33.70;21.20;;;12.40;99.90;;;;;;5051672;28;20412;-72
2022/06/10 02:39:06;;;;;;;36.03;20.60;;;12.30;99.90;;;;;;5040678;28;20379;-72
2022/06/10 02:42:13;;;;;;;30.48;19.60;;;12.30;99.90;;;;;;5031057;28;20451;-72
2022/06/10 02:44:41;;;;;;;34.78;20.50;;;12.20;99.90;;;;;;5033337;28;20497;-73
2022/06/10 02:47:09;;;;;;;31.13;21.02;;;12.20;99.90;;;;;;5039699;28;20904;-71
2022/06/10 02:49:35;;;;;;;32.17;20.38;;;12.20;99.90;;;;;;5042311;28;20898;-71
2022/06/10 02:52:01;;;;;;;31.90;20.85;;;12.10;99.90;;;;;;5034365;28;20401;-71
2022/06/10 02:54:33;;;;;;;31.85;20.67;;;12.10;99.90;;;;;;5043777;28;20796;-72
2022/06/10 02:57:23;;;;;;;31.20;20.00;;;12.10;99.90;;;;;;5042158;28;20387;-71
2022/06/10 03:02:51;;;;;;;30.40;20.90;;;12.00;99.90;;;;;;5033640;28;20464;-72
2022/06/10 03:05:47;;;;;;;30.20;19.73;;;12.20;99.90;;;;;;5038946;28;20396;-72
2022/06/10 03:08:25;;;;;;;31.25;20.45;;;12.10;99.90;;;;;;5026737;28;20396;-73
2022/06/10 03:11:06;;;;;;;26.48;20.17;;;12.00;99.90;;;;;;5038075;28;20413;-72
2022/06/10 03:13:41;;;;;;;28.33;20.23;;;12.00;99.90;;;;;;5041241;28;20437;-72
2022/06/10 03:16:32;;;;;;;27.40;20.00;;;12.00;99.90;;;;;;5041910;28;20440;-73
2022/06/10 03:19:25;;;;;;;29.67;19.83;;;12.00;99.90;;;;;;5038855;28;20779;-73
2022/06/10 03:22:04;;;;;;;28.98;19.80;;;12.00;99.90;;;;;;5030662;28;20375;-72
2022/06/10 03:24:33;;;;;;;30.50;20.45;;;12.00;99.90;;;;;;5038932;28;20433;-73
2022/06/10 03:27:23;;;;;;;31.15;20.95;;;12.00;99.90;;;;;;5030321;28;20449;-73
2022/06/10 03:29:54;;;;;;;27.92;21.05;;;12.00;99.90;;;;;;5033205;28;20393;-73
2022/06/10 03:32:41;;;;;;;26.63;19.67;;;12.00;99.90;;;;;;5031256;28;20402;-71
2022/06/10 03:35:14;;;;;;;36.92;19.90;;;11.90;99.90;;;;;;5038575;28;20399;-72
2022/06/10 03:37:41;;;;;;;29.25;20.17;;;12.00;99.90;;;;;;5032514;28;20394;-73
2022/06/10 03:40:14;;;;;;;27.92;19.17;;;12.00;99.90;;;;;;5050085;28;20412;-73
2022/06/10 03:42:48;;;;;;;32.25;20.13;;;12.00;99.90;;;;;;5048231;28;20455;-73
2022/06/10 03:45:18;;;;;;;29.88;19.85;;;12.00;99.90;;;;;;5034926;28;20772;-73
2022/06/10 03:47:45;;;;;;;26.67;19.20;;;12.00;99.90;;;;;;5045699;28;20791;-73
2022/06/10 03:50:14;;;;;;;23.92;18.98;;;12.00;99.90;;;;;;5050106;28;20390;-72
2022/06/10 03:52:41;;;;;;;27.23;18.70;;;12.10;99.90;;;;;;5024997;28;20445;-73
2022/06/10 03:55:09;;;;;;;27.38;18.30;;;12.10;99.90;;;;;;5038272;28;20395;-73
2022/06/10 03:57:35;;;;;;;26.30;18.70;;;12.10;99.90;;;;;;5031800;28;20883;-72
2022/06/10 04:00:01;;;;;;;30.30;17.77;;;12.10;99.90;;;;;;5050411;28;20780;-73
2022/06/10 04:02:27;;;;;;;23.90;17.23;;;12.20;99.90;;;;;;5044061;28;20407;-72
2022/06/10 04:04:52;;;;;;;31.80;18.20;;;12.20;99.90;;;;;;5038176;28;20395;-72
2022/06/10 04:07:19;;;;;;;23.30;17.17;;;12.20;99.90;;;;;;5029936;28;20753;-72
2022/06/10 04:09:47;;;;;;;23.95;16.80;;;12.30;99.90;;;;;;5030012;28;20386;-72
2022/06/10 04:12:15;;;;;;;24.17;16.65;;;12.40;99.90;;;;;;5048131;28;20418;-72
2022/06/10 04:14:41;;;;;;;23.37;15.40;;;12.40;99.90;;;;;;5049773;28;20476;-72
2022/06/10 04:17:08;;;;;;;20.65;14.88;;;12.50;99.90;;;;;;5049870;28;20988;-72
2022/06/10 04:19:34;;;;;;;21.98;16.15;;;12.60;99.90;;;;;;5049702;28;20392;-72
2022/06/10 04:22:00;;;;;;;21.17;15.07;;;12.70;99.90;;;;;;5047820;28;20406;-72
2022/06/10 04:24:26;;;;;;;27.17;15.80;;;12.80;99.90;;;;;;5038181;28;20396;-72
2022/06/10 04:26:52;;;;;;;22.20;14.50;;;13.00;99.90;;;;;;5042999;28;20389;-73
2022/06/10 04:29:18;;;;;;;18.73;14.30;;;13.20;99.90;;;;;;5032340;28;20393;-73
2022/06/10 04:31:43;;;;;;;17.85;12.75;;;13.40;99.90;;;;;;5036520;28;20390;-73
2022/06/10 04:34:11;;;;;;;16.20;13.20;;;13.60;99.90;;;;;;5039179;28;20389;-73
2022/06/10 04:36:37;;;;;;;18.90;12.63;;;13.80;99.90;;;;;;5030061;28;20859;-72
2022/06/10 04:39:03;;;;;;;19.00;12.10;;;14.00;94.90;;;;;;5042891;28;20390;-72
2022/06/10 04:41:28;;;;;;;18.40;12.40;;;14.20;89.10;;;;;;5048975;28;20508;-72
2022/06/10 04:43:54;;;;;;;17.80;12.90;;;14.30;86.10;;;;;;5044954;28;20380;-72
2022/06/10 04:46:37;;;;;;;20.57;13.97;;;14.60;80.20;;;;;;5055938;28;20448;-72
2022/06/10 04:49:03;;;;;;;20.98;13.80;;;14.60;79.60;;;;;;5054822;28;20382;-73
2022/06/10 04:51:29;;;;;;;23.90;14.70;;;14.80;77.00;;;;;;5052058;28;20414;-74
2022/06/10 04:53:55;;;;;;;22.33;13.63;;;15.00;76.40;;;;;;5044351;28;20706;-72
2022/06/10 04:56:20;;;;;;;26.88;14.40;;;15.10;72.20;;;;;;5050129;28;20801;-72
2022/06/10 04:58:46;;;;;;;20.30;13.40;;;15.20;72.60;;;;;;5015857;28;20487;-72
2022/06/10 05:01:12;;;;;;;21.50;13.00;;;15.30;69.90;;;;;;5032414;28;20432;-73
2022/06/10 05:03:37;;;;;;;17.45;11.85;;;15.40;68.30;;;;;;5040888;28;20442;-72
2022/06/10 05:06:04;;;;;;;19.37;12.90;;;15.50;68.30;;;;;;5050844;28;20878;-73
2022/06/10 05:08:29;;;;;;;21.10;12.70;;;15.50;67.40;;;;;;5034234;28;20477;-73
2022/06/10 05:10:55;;;;;;;19.90;11.88;;;15.60;66.10;;;;;;5035689;28;20490;-72
2022/06/10 05:13:21;;;;;;;16.50;11.17;;;15.60;64.90;;;;;;5032777;28;20387;-72
2022/06/10 05:15:48;;;;;;;17.83;11.60;;;15.70;65.70;;;;;;5042872;28;20413;-72
2022/06/10 05:18:20;;;;;;;19.33;11.38;;;15.80;63.70;;;;;;5033136;28;20468;-72
2022/06/10 05:20:46;;;;;;;16.33;11.55;;;15.80;63.70;;;;;;5038799;28;20416;-72
2022/06/10 05:23:15;;;;;;;20.50;12.50;;;15.80;62.90;;;;;;5048156;28;20834;-72
2022/06/10 05:25:41;;;;;;;18.60;11.30;;;15.80;63.20;;;;;;5032207;28;20405;-73
2022/06/10 05:28:07;;;;;;;16.08;10.60;;;15.90;59.90;;;;;;5032049;28;20561;-71
2022/06/10 05:30:34;;;;;;;17.73;10.63;;;15.90;61.00;;;;;;5045886;28;20953;-72
2022/06/10 05:33:02;;;;;;;17.00;10.55;;;15.80;60.70;;;;;;5042485;28;20392;-72
2022/06/10 05:35:29;;;;;;;17.63;10.97;;;15.90;62.10;;;;;;5018399;28;20402;-72
2022/06/10 05:37:55;;;;;;;18.17;9.85;;;15.90;61.40;;;;;;5050846;28;20468;-73
2022/06/10 05:40:25;;;;;;;18.33;11.00;;;16.00;61.70;;;;;;5041491;28;20490;-73
2022/06/10 05:42:51;;;;;;;16.87;10.90;;;15.90;62.00;;;;;;5039179;28;20387;-75
2022/06/10 05:45:18;;;;;;;15.27;10.55;;;15.80;63.00;;;;;;5033135;28;20465;-75
2022/06/10 05:47:46;;;;;;;18.13;10.77;;;15.80;64.00;;;;;;5028127;28;20401;-74
2022/06/10 05:50:17;;;;;;;13.90;10.45;;;15.90;64.40;;;;;;5049286;28;20766;-74
2022/06/10 05:52:42;;;;;;;14.77;10.20;;;16.00;62.40;;;;;;5041313;28;20480;-74
2022/06/10 05:55:10;;;;;;;16.85;10.90;;;16.00;62.70;;;;;;5044264;28;20492;-74
2022/06/10 05:57:37;;;;;;;20.73;10.63;;;16.10;62.30;;;;;;5038436;28;20464;-73
2022/06/10 06:00:06;;;;;;;18.80;9.98;;;16.10;62.50;;;;;;5042244;28;20452;-73
2022/06/10 06:02:32;;;;;;;20.65;9.95;;;16.20;60.30;;;;;;5044803;28;20443;-73
2022/06/10 06:04:58;;;;;;;20.33;10.93;;;16.20;59.40;;;;;;5038946;28;20420;-72
2022/06/10 06:07:26;;;;;;;16.83;9.80;;;16.30;58.70;;;;;;5042533;28;20401;-73
2022/06/10 06:09:52;;;;;;;14.57;9.20;;;16.40;57.60;;;;;;5046324;28;20460;-73
2022/06/10 06:12:18;;;;;;;16.08;9.65;;;16.50;57.00;;;;;;5045582;28;20410;-73
2022/06/10 06:14:43;;;;;;;15.73;10.23;;;16.60;57.00;;;;;;5039559;28;20767;-73
2022/06/10 06:17:11;;;;;;;17.70;9.60;;;16.70;56.40;;;;;;5039556;28;20439;-72
2022/06/10 06:19:37;;;;;;;15.77;9.10;;;16.80;55.30;;;;;;5041287;28;20835;-71
2022/06/10 06:22:03;;;;;;;17.33;9.18;;;16.90;54.70;;;;;;5030083;28;20424;-71
2022/06/10 06:24:28;;;;;;;17.25;9.18;;;16.90;52.80;;;;;;5042074;28;20399;-71
2022/06/10 06:26:54;;;;;;;13.70;8.07;;;17.00;52.40;;;;;;5037970;28;20499;-72
2022/06/10 06:29:23;;;;;;;16.03;8.80;;;17.20;52.50;;;;;;5042103;28;20410;-72
2022/06/10 06:31:50;;;;;;;15.90;9.00;;;17.30;50.70;;;;;;5044794;28;20502;-72
2022/06/10 06:34:16;;;;;;;15.70;7.82;;;17.40;49.80;;;;;;5042406;28;20412;-72
2022/06/10 06:36:45;;;;;;;16.55;8.00;;;17.50;49.20;;;;;;5042421;28;20403;-72
2022/06/10 06:39:12;;;;;;;14.90;7.97;;;17.70;49.10;;;;;;5038447;28;20413;-71
2022/06/10 06:41:37;;;;;;;15.40;8.23;;;17.80;47.80;;;;;;5046016;28;20758;-71
2022/06/10 06:44:05;;;;;;;13.82;7.70;;;17.90;46.60;;;;;;5041999;28;20399;-71
2022/06/10 06:46:33;;;;;;;16.95;7.90;;;18.30;43.90;;;;;;5049560;28;20397;-72
2022/06/10 06:48:59;;;;;;;22.77;7.43;;;18.10;42.50;;;;;;5035584;28;20447;-75
2022/06/10 06:51:25;;;;;;;14.57;7.93;;;18.20;43.00;;;;;;5040798;28;21689;-75
2022/06/10 06:53:51;;;;;;;13.77;8.25;;;18.20;42.10;;;;;;5042406;28;20389;-75
2022/06/10 06:56:17;;;;;;;12.93;7.47;;;18.30;42.60;;;;;;5038455;28;20434;-74
2022/06/10 06:58:43;;;;;;;17.77;6.90;;;18.50;41.50;;;;;;5045601;28;20401;-71
2022/06/10 07:01:08;;;;;;;12.95;6.95;;;18.60;41.00;;;;;;5037444;28;20405;-72
2022/06/10 07:03:34;;;;;;;15.90;7.57;;;18.70;39.90;;;;;;5045244;28;20413;-71
2022/06/10 07:05:59;;;;;;;13.10;7.10;;;18.70;39.30;;;;;;5024112;28;20406;-72
2022/06/10 07:08:31;;;;;;;13.98;7.55;;;18.80;40.20;;;;;;5050271;28;20893;-72
2022/06/10 07:10:58;;;;;;;14.60;6.60;;;18.80;40.10;;;;;;5041195;28;20498;-73
2022/06/10 07:13:24;;;;;;;13.30;7.00;;;18.80;39.50;;;;;;5046347;28;20514;-73
2022/06/10 07:15:50;;;;;;;13.65;7.22;;;18.80;39.90;;;;;;5048039;28;20409;-74
2022/06/10 07:18:16;;;;;;;13.95;6.82;;;18.80;39.20;;;;;;5044926;28;20404;-72
2022/06/10 07:20:42;;;;;;;19.27;6.47;;;18.80;39.40;;;;;;5040729;28;20445;-73
2022/06/10 07:23:07;;;;;;;15.33;6.63;;;18.80;38.50;;;;;;5043526;28;20410;-73
2022/06/10 07:25:33;;;;;;;13.07;6.83;;;18.90;39.40;;;;;;5044454;28;20412;-73
2022/06/10 07:28:00;;;;;;;13.63;6.10;;;19.00;39.10;;;;;;5044333;28;20945;-72
2022/06/10 07:30:29;;;;;;;15.82;5.97;;;19.30;37.50;;;;;;5045352;28;20766;-73
2022/06/10 07:32:57;;;;;;;10.80;5.93;;;19.70;36.50;;;;;;5045715;28;20412;-73
2022/06/10 07:35:23;;;;;;;14.45;5.60;;;19.80;34.90;;;;;;5044864;28;20504;-73
2022/06/10 07:37:50;;;;;;;11.52;5.93;;;19.90;34.70;;;;;;5044337;28;20471;-72
2022/06/10 07:43:09;;;;;;;13.27;5.57;;;20.10;34.20;;;;;;5066584;28;21582;-73
2022/06/10 07:45:35;;;;;;;14.93;4.90;;;20.10;33.80;;;;;;5050091;28;20484;-74
2022/06/10 07:48:01;;;;;;;11.13;4.00;;;20.10;31.50;;;;;;5065579;28;20407;-76
2022/06/10 07:50:27;;;;;;;11.70;4.20;;;20.10;30.20;;;;;;5064821;28;20910;-74
2022/06/10 07:52:52;;;;;;;13.00;4.03;;;20.10;29.90;;;;;;5066081;28;20459;-75
2022/06/10 07:55:19;;;;;;;10.70;3.72;;;20.20;29.90;;;;;;5063485;28;20400;-75
2022/06/10 07:57:45;;;;;;;11.23;4.78;;;20.40;29.90;;;;;;5067174;28;20404;-76
2022/06/10 08:00:12;;;;;;;13.00;4.00;;;20.80;28.10;;;;;;5061876;28;20430;-73
2022/06/10 08:02:39;;;;;;;12.23;4.10;;;20.80;26.70;;;;;;5065226;28;20409;-75
2022/06/10 08:05:07;;;;;;;11.43;3.60;;;20.90;26.70;;;;;;5061112;28;20420;-74
2022/06/10 08:07:33;;;;;;;15.32;4.00;;;21.00;26.10;;;;;;5047902;28;20405;-74
2022/06/10 08:09:58;;;;;;;15.25;3.20;;;21.00;25.80;;;;;;5067266;28;20753;-77
2022/06/10 08:12:24;;;;;;;13.85;2.55;;;21.20;24.90;;;;;;5065709;28;20720;-76
2022/06/10 08:14:49;;;;;;;7.43;2.50;;;21.50;25.40;;;;;;5064967;28;20887;-74
2022/06/10 08:17:16;;;;;;;7.82;2.40;;;21.70;24.30;;;;;;5070986;28;20403;-77
2022/06/10 08:19:42;;;;;;;8.68;2.20;;;21.90;23.20;;;;;;5067430;28;20413;-74
2022/06/10 08:24:53;;;;;;;9.00;2.90;;;22.70;20.50;;;;;;5068293;28;20784;-75
2022/06/10 08:27:19;;;;;;;9.50;2.50;;;22.90;20.50;;;;;;5062985;28;20411;-75
2022/06/10 08:29:44;;;;;;;11.57;2.10;;;23.30;18.60;;;;;;5067292;28;20457;-72
2022/06/10 08:32:10;;;;;;;7.97;2.67;;;23.50;18.90;;;;;;5071420;28;20441;-75
2022/06/10 08:34:36;;;;;;;9.30;2.30;;;23.80;18.50;;;;;;5058386;28;20476;-76
2022/06/10 08:37:02;;;;;;;7.60;2.20;;;23.50;18.30;;;;;;5057270;28;20768;-75
2022/06/10 08:39:29;;;;;;;9.60;2.58;;;23.50;18.60;;;;;;5070553;28;20452;-74
2022/06/10 08:42:26;;;;;;;8.93;2.60;;;23.60;18.40;;;;;;5073696;28;20408;-78
2022/06/10 08:44:58;;;;;;;6.07;2.30;;;23.60;18.80;;;;;;5078170;28;20410;-78
2022/06/10 08:47:29;;;;;;;12.25;2.10;;;23.60;18.10;;;;;;5074020;28;20534;-76
2022/06/10 08:50:05;;;;;;;8.60;1.98;;;23.00;19.00;;;;;;5069783;28;20506;-76
2022/06/10 08:52:50;;;;;;;8.93;2.10;;;22.40;20.00;;;;;;5072322;28;20501;-75
2022/06/10 08:55:53;;;;;;;7.03;1.80;;;22.10;21.20;;;;;;5054236;28;20586;-75
2022/06/10 08:58:21;;;;;;;7.32;2.00;;;21.90;22.40;;;;;;5070731;28;20845;-76
2022/06/10 09:00:48;;;;;;;7.20;2.10;;;21.70;22.50;;;;;;5075470;28;20780;-77
2022/06/10 09:03:21;;;;;;;9.60;2.20;;;21.50;22.20;;;;;;5074520;28;20406;-77
2022/06/10 09:05:52;;;;;;;9.25;2.40;;;21.40;23.00;;;;;;5076532;28;20391;-76
2022/06/10 09:08:28;;;;;;;12.30;2.60;;;21.30;24.10;;;;;;5072512;28;20438;-76
2022/06/10 09:11:19;;;;;;;9.98;2.60;;;21.10;25.10;;;;;;5053829;28;20407;-77
2022/06/10 09:13:59;;;;;;;10.85;2.60;;;20.90;26.20;;;;;;5068998;28;20452;-77
2022/06/10 09:16:35;;;;;;;10.60;2.90;;;20.80;26.40;;;;;;5054075;28;20403;-77
2022/06/10 09:19:19;;;;;;;8.80;2.80;;;20.80;27.70;;;;;;5069600;28;20768;-76
2022/06/10 09:21:45;;;;;;;8.93;2.90;;;20.90;28.10;;;;;;5067207;28;20403;-76
2022/06/10 09:24:26;;;;;;;9.68;2.60;;;20.80;27.60;;;;;;5055265;28;20465;-76
2022/06/10 09:27:16;;;;;;;12.00;3.58;;;21.00;27.70;;;;;;5070677;28;20907;-76
2022/06/10 09:29:42;;;;;;;14.50;3.10;;;21.20;27.50;;;;;;5071733;28;20400;-76
2022/06/10 09:32:18;;;;;;;12.02;3.00;;;21.60;25.70;;;;;;5071052;28;20537;-76
2022/06/10 09:34:58;;;;;;;14.57;3.17;;;22.00;25.00;;;;;;5050062;28;20439;-75
2022/06/10 09:38:12;;;;;;;10.73;2.50;;;22.20;24.30;;;;;;5072600;28;20401;-74
2022/06/10 09:41:03;;;;;;;8.57;2.40;;;22.60;23.00;;;;;;4986930;28;20459;-76
2022/06/10 09:44:07;;;;;;;8.25;2.50;;;23.00;21.10;;;;;;5054138;28;20764;-76
2022/06/10 09:46:54;;;;;;;9.35;2.10;;;23.20;20.60;;;;;;5067201;28;20431;-76
2022/06/10 09:49:37;;;;;;;5.28;1.58;;;23.00;21.60;;;;;;5055288;28;20404;-76
2022/06/10 09:52:12;;;;;;;7.10;1.80;;;22.90;21.90;;;;;;5074431;28;20400;-74
2022/06/10 09:55:16;;;;;;;5.97;2.00;;;22.70;22.60;;;;;;5054083;28;20397;-76
2022/06/10 09:58:20;;;;;;;6.35;2.30;;;22.90;22.30;;;;;;5067632;28;20939;-75
2022/06/10 10:00:58;;;;;;;8.83;3.00;;;22.90;22.90;;;;;;5010161;28;20412;-75
2022/06/10 10:03:36;;;;;;;11.25;3.15;;;23.20;22.90;;;;;;5011337;28;20413;-74
2022/06/10 10:06:27;;;;;;;11.63;3.45;;;23.70;21.20;;;;;;5048592;28;20415;-76
2022/06/10 10:09:24;;;;;;;10.32;3.10;;;23.70;20.50;;;;;;5053511;28;20403;-75
2022/06/10 10:12:08;;;;;;;5.78;2.92;;;23.90;20.90;;;;;;5070563;28;20476;-75
2022/06/10 10:15:09;;;;;;;9.63;3.15;;;24.20;19.60;;;;;;5048818;28;20400;-72
2022/06/10 10:17:38;;;;;;;7.23;3.40;;;24.50;19.50;;;;;;5070933;28;20403;-74
2022/06/10 10:20:30;;;;;;;10.32;2.97;;;24.80;18.50;;;;;;5072849;28;20411;-75
2022/06/10 10:23:07;;;;;;;10.23;3.47;;;25.10;17.80;;;;;;5066128;28;20411;-76
2022/06/10 10:25:33;;;;;;;9.02;4.50;;;25.20;17.10;;;;;;5070931;28;20434;-76
2022/06/10 10:28:01;;;;;;;7.45;2.45;;;25.30;17.70;;;;;;5067249;28;20411;-76
2022/06/10 10:30:42;;;;;;;7.20;2.80;;;25.30;16.60;;;;;;5052568;28;20823;-75
2022/06/10 10:33:11;;;;;;;9.13;2.17;;;25.20;16.90;;;;;;5051838;28;20411;-75
2022/06/10 10:35:42;;;;;;;8.43;2.90;;;25.00;17.20;;;;;;5053240;28;20509;-75
2022/06/10 10:38:29;;;;;;;10.02;2.60;;;24.80;17.30;;;;;;5069878;28;20904;-76
2022/06/10 10:40:55;;;;;;;7.20;2.33;;;24.80;18.20;;;;;;5070989;28;20419;-76
2022/06/10 10:43:25;;;;;;;7.35;2.40;;;24.90;18.00;;;;;;5053031;28;20424;-75
2022/06/10 10:45:55;;;;;;;8.20;2.75;;;24.80;17.30;;;;;;5067783;28;20434;-76
2022/06/10 10:48:47;;;;;;;8.27;2.47;;;24.90;17.80;;;;;;5067660;28;20403;-76
2022/06/10 10:51:13;;;;;;;6.22;2.47;;;25.00;17.30;;;;;;5056490;28;20405;-75
2022/06/10 10:53:42;;;;;;;6.07;2.47;;;25.10;17.30;;;;;;5052518;28;20473;-75
2022/06/10 10:56:12;;;;;;;6.72;2.40;;;25.40;16.70;;;;;;5060733;28;20524;-74
2022/06/10 10:58:48;;;;;;;8.68;2.67;;;25.60;16.90;;;;;;5062720;28;20380;-73
2022/06/10 11:03:58;;;;;;;6.10;2.78;;;25.80;16.10;;;;;;5069769;28;20395;-74
2022/06/10 11:06:27;;;;;;;7.43;2.50;;;26.10;15.90;;;;;;5066974;28;20405;-76
2022/06/10 11:09:13;;;;;;;7.70;2.70;;;26.20;15.80;;;;;;5045634;28;20886;-75
2022/06/10 11:11:41;;;;;;;7.32;2.20;;;26.20;15.00;;;;;;5067773;28;20915;-75
2022/06/10 11:14:26;;;;;;;6.20;2.33;;;26.50;14.40;;;;;;5071540;28;20414;-74
2022/06/10 11:17:11;;;;;;;5.85;2.58;;;26.70;15.00;;;;;;5051948;28;20491;-74
2022/06/10 11:19:37;;;;;;;9.02;2.30;;;26.80;13.90;;;;;;5054530;28;20741;-75
2022/06/10 11:22:02;;;;;;;7.10;2.10;;;26.70;13.90;;;;;;5064784;28;20411;-75
2022/06/10 11:24:43;;;;;;;8.32;2.53;;;26.60;13.80;;;;;;5064576;28;20420;-73
2022/06/10 11:27:31;;;;;;;9.82;2.60;;;26.80;14.00;;;;;;5045655;28;21222;-75
2022/06/10 11:30:02;;;;;;;3.95;2.15;;;26.90;13.40;;;;;;5059400;28;20411;-74
2022/06/10 11:32:36;;;;;;;9.52;2.78;;;26.80;12.90;;;;;;5070739;28;20430;-74
2022/06/10 11:35:23;;;;;;;4.63;2.17;;;26.90;13.50;;;;;;5068980;28;20789;-74
2022/06/10 11:37:53;;;;;;;5.05;2.10;;;26.90;13.20;;;;;;5049353;28;20419;-75
2022/06/10 11:40:23;;;;;;;6.28;2.00;;;26.80;13.60;;;;;;5051836;28;20410;-75
2022/06/10 11:43:04;;;;;;;6.10;1.90;;;26.80;12.90;;;;;;5069810;28;20403;-75
2022/06/10 11:45:32;;;;;;;7.40;2.20;;;27.10;12.80;;;;;;5057239;28;20408;-75
2022/06/10 11:48:28;;;;;;;6.93;2.45;;;27.20;12.70;;;;;;5071300;28;20414;-76
2022/06/10 11:51:21;;;;;;;6.55;1.90;;;27.50;12.50;;;;;;5051854;28;20433;-74
2022/06/10 11:53:52;;;;;;;7.00;1.90;;;27.60;11.40;;;;;;5076940;28;20412;-74
2022/06/10 11:59:45;;;;;;;5.78;1.83;;;27.60;11.40;;;;;;5076224;28;20495;-75
2022/06/10 12:02:20;;;;;;;11.23;2.50;;;27.90;11.60;;;;;;5077199;28;20768;-75
2022/06/10 12:04:56;;;;;;;9.20;2.28;;;27.80;11.00;;;;;;5052084;28;20411;-74
2022/06/10 12:07:27;;;;;;;5.97;1.90;;;27.80;10.80;;;;;;5067674;28;20393;-74
2022/06/10 12:09:58;;;;;;;8.50;2.30;;;27.90;11.20;;;;;;5070101;28;20396;-76
2022/06/10 12:12:29;;;;;;;6.43;2.00;;;28.10;11.10;;;;;;5052216;28;20403;-75
2022/06/10 12:14:58;;;;;;;7.90;2.50;;;28.10;11.10;;;;;;5066246;28;20403;-74
2022/06/10 12:17:32;;;;;;;6.53;2.40;;;28.30;10.30;;;;;;5066002;28;20878;-78
2022/06/10 12:20:18;;;;;;;8.93;2.20;;;28.30;10.40;;;;;;5067752;28;20810;-77
2022/06/10 12:22:44;;;;;;;4.97;1.80;;;28.20;10.80;;;;;;5068454;28;20773;-75
2022/06/10 12:25:27;;;;;;;5.43;2.00;;;28.50;10.40;;;;;;5053468;28;20413;-75
2022/06/10 12:28:03;;;;;;;7.13;2.13;;;28.40;9.70;;;;;;5069081;28;20396;-76
2022/06/10 12:30:53;;;;;;;7.07;2.85;;;28.30;10.80;;;;;;5072011;28;21102;-75
2022/06/10 12:33:41;;;;;;;6.05;2.20;;;28.30;10.30;;;;;;5055159;28;20413;-75
2022/06/10 12:36:15;;;;;;;6.47;2.40;;;28.30;10.20;;;;;;5074529;28;20413;-74
2022/06/10 12:38:43;;;;;;;8.43;2.30;;;28.30;9.80;;;;;;5075333;28;20399;-76
2022/06/10 12:41:38;;;;;;;9.03;2.10;;;28.20;10.90;;;;;;5058284;28;20943;-75
2022/06/10 12:44:09;;;;;;;6.07;2.10;;;28.80;10.50;;;;;;5076926;28;20457;-76
2022/06/10 12:46:47;;;;;;;7.63;2.20;;;28.80;9.70;;;;;;5073648;28;20423;-76
2022/06/10 12:49:25;;;;;;;7.00;2.25;;;28.80;9.30;;;;;;5073716;28;20872;-75
2022/06/10 12:52:05;;;;;;;6.27;2.40;;;28.80;9.80;;;;;;5058125;28;20399;-74
2022/06/10 12:54:52;;;;;;;9.45;2.28;;;29.00;9.90;;;;;;5074381;28;20399;-76
2022/06/10 12:57:28;;;;;;;4.67;2.00;;;28.90;9.60;;;;;;5071636;28;20398;-75
2022/06/10 13:00:18;;;;;;;6.37;1.90;;;28.90;9.10;;;;;;5070932;28;20903;-75
2022/06/10 13:02:45;;;;;;;13.35;2.60;;;28.60;9.70;;;;;;5052330;28;20434;-76
2022/06/10 13:05:19;;;;;;;4.18;1.90;;;28.50;9.70;;;;;;5072550;28;20772;-76
2022/06/10 13:07:44;;;;;;;5.60;2.20;;;28.60;10.40;;;;;;5065889;28;20407;-76
2022/06/10 13:10:44;;;;;;;4.77;1.77;;;28.80;9.40;;;;;;5072086;28;20773;-79
2022/06/10 13:13:18;;;;;;;8.37;2.30;;;28.60;9.90;;;;;;5000927;28;20915;-75
2022/06/10 13:15:44;;;;;;;5.03;2.10;;;28.40;10.30;;;;;;5076808;28;20410;-74
2022/06/10 13:18:34;;;;;;;6.78;2.20;;;29.10;10.30;;;;;;5082156;28;20399;-75
2022/06/10 13:21:13;;;;;;;7.60;2.20;;;29.30;8.50;;;;;;5071483;28;20566;-75